Time;durP1;ratioP1;P1;durP2;ratioP2;P2;SDS_P1;SDS_P2;PMS_P1;PMS_P2;Temp;Humidity;BMP_temperature;BMP_pressure;BME280_temperature;BME280_humidity;BME280_pressure;Samples;Min_cycle;Max_cycle;Signal;HPM_P1;HPM_P2
2022/02/14 09:47:26;;;;;;;34.37;15.73;;;5.20;62.30;;;;;;4958464;28;1294826;-72
2022/02/14 09:51:13;;;;;;;33.63;17.17;;;5.20;61.10;;;;;;4937452;28;93174;-74
2022/02/14 09:53:40;;;;;;;17.48;9.45;;;5.30;61.20;;;;;;4955294;28;20053;-78
2022/02/14 09:56:08;;;;;;;15.73;8.57;;;5.40;60.80;;;;;;5030799;28;20066;-74
2022/02/14 09:58:33;;;;;;;14.95;8.85;;;5.40;60.40;;;;;;5029681;28;20018;-79
2022/02/14 10:00:59;;;;;;;14.48;9.20;;;5.50;60.30;;;;;;5029449;28;20441;-76
2022/02/14 10:03:25;;;;;;;14.85;9.20;;;5.60;59.90;;;;;;5029649;28;20099;-79
2022/02/14 10:05:59;;;;;;;16.67;9.10;;;5.60;58.90;;;;;;5030781;28;20502;-78
2022/02/14 10:08:28;;;;;;;19.42;9.55;;;5.70;58.70;;;;;;5030880;28;20137;-73
2022/02/14 10:11:08;;;;;;;15.15;9.07;;;5.70;58.80;;;;;;5030577;28;20034;-80
2022/02/14 10:13:35;;;;;;;24.60;11.68;;;5.80;58.20;;;;;;5030625;28;20083;-79
2022/02/14 10:16:09;;;;;;;17.23;9.35;;;5.80;57.80;;;;;;5029008;28;20022;-74
2022/02/14 10:18:36;;;;;;;20.13;9.65;;;5.90;57.60;;;;;;5030604;28;20061;-79
2022/02/14 10:21:22;;;;;;;17.00;8.52;;;5.90;57.80;;;;;;5028978;28;20387;-74
2022/02/14 10:23:57;;;;;;;16.00;8.80;;;6.00;57.10;;;;;;5030463;28;20029;-78
2022/02/14 10:26:27;;;;;;;16.45;8.93;;;6.00;57.50;;;;;;5029050;28;20040;-79
2022/02/14 10:28:52;;;;;;;18.35;8.98;;;6.10;57.10;;;;;;5029377;28;20487;-73
2022/02/14 10:31:20;;;;;;;13.38;9.02;;;6.10;57.30;;;;;;5030150;28;20079;-74
2022/02/14 10:33:51;;;;;;;21.00;12.60;;;6.20;56.90;;;;;;5028997;28;20091;-76
2022/02/14 10:36:29;;;;;;;14.10;8.35;;;6.20;56.90;;;;;;5030098;28;20060;-73
2022/02/14 10:38:57;;;;;;;16.52;9.02;;;6.30;57.20;;;;;;5028047;28;20387;-79
2022/02/14 10:41:23;;;;;;;14.93;9.13;;;6.20;55.80;;;;;;5028642;28;20394;-75
2022/02/14 10:43:49;;;;;;;16.75;9.40;;;6.30;56.50;;;;;;5029921;28;20030;-74
2022/02/14 10:46:20;;;;;;;42.95;20.70;;;6.40;56.30;;;;;;5030107;28;20363;-75
2022/02/14 10:48:46;;;;;;;14.15;8.82;;;6.40;56.40;;;;;;5028448;28;20026;-79
2022/02/14 10:51:19;;;;;;;13.93;8.98;;;6.50;56.50;;;;;;5029888;28;20537;-79
2022/02/14 10:53:46;;;;;;;13.70;8.10;;;6.60;55.80;;;;;;5030036;28;20061;-79
2022/02/14 10:56:13;;;;;;;14.48;9.10;;;6.50;55.20;;;;;;5029905;28;20430;-74
2022/02/14 10:58:39;;;;;;;13.90;8.48;;;6.60;55.20;;;;;;5029753;28;20033;-79
2022/02/14 11:01:09;;;;;;;15.55;8.05;;;6.60;55.70;;;;;;5023164;28;20041;-74
2022/02/14 11:03:42;;;;;;;15.70;9.05;;;6.70;55.80;;;;;;5015331;28;20097;-74
2022/02/14 11:06:08;;;;;;;;;;;6.70;54.70;;;;;;5015581;28;20061;-74
2022/02/14 11:08:35;;;;;;;14.60;7.85;;;6.80;54.40;;;;;;5016480;28;19947;-74
2022/02/14 11:11:02;;;;;;;10.63;7.75;;;6.80;54.50;;;;;;5016203;28;20506;-79
2022/02/14 11:13:34;;;;;;;12.88;8.38;;;6.90;54.90;;;;;;5015078;28;20021;-78
2022/02/14 11:16:02;;;;;;;16.20;9.35;;;6.90;53.70;;;;;;5015080;28;20425;-73
2022/02/14 11:18:36;;;;;;;22.95;10.45;;;7.00;54.60;;;;;;5016224;28;20088;-74
2022/02/14 11:21:02;;;;;;;21.80;11.65;;;7.00;54.00;;;;;;5014883;28;20076;-74
2022/02/14 11:23:32;;;;;;;21.27;9.23;;;7.10;53.60;;;;;;5014813;28;20113;-79
2022/02/14 11:26:08;;;;;;;16.92;9.35;;;7.00;53.30;;;;;;5015778;28;20513;-74
2022/02/14 11:28:44;;;;;;;16.10;9.23;;;7.00;54.40;;;;;;5014931;28;20050;-78
2022/02/14 11:31:13;;;;;;;12.50;8.77;;;7.10;53.40;;;;;;5015995;28;20041;-79
2022/02/14 11:33:51;;;;;;;17.70;9.15;;;7.10;52.60;;;;;;5015961;28;20053;-74
2022/02/14 11:36:17;;;;;;;18.42;9.27;;;7.10;53.90;;;;;;5015858;28;20026;-75
2022/02/14 11:38:43;;;;;;;13.38;9.05;;;7.20;53.90;;;;;;5015775;28;20025;-79
2022/02/14 11:41:23;;;;;;;18.65;10.38;;;7.30;53.90;;;;;;5015766;28;20101;-78
2022/02/14 11:43:49;;;;;;;14.18;9.68;;;7.30;53.70;;;;;;5015744;28;20026;-74
2022/02/14 11:46:27;;;;;;;13.40;8.98;;;7.30;53.80;;;;;;5015711;28;20029;-78
2022/02/14 11:49:17;;;;;;;63.80;21.10;;;7.40;52.40;;;;;;5015550;28;20474;-74
2022/02/14 11:51:53;;;;;;;44.67;20.35;;;7.40;52.50;;;;;;5015575;28;20096;-74
2022/02/14 11:54:43;;;;;;;18.63;9.52;;;7.50;52.30;;;;;;5015642;28;20022;-79
2022/02/14 11:57:33;;;;;;;22.77;10.10;;;7.60;52.70;;;;;;5014202;28;20021;-78
2022/02/14 12:00:18;;;;;;;19.50;10.43;;;7.60;51.60;;;;;;5014618;28;20061;-79
2022/02/14 12:03:09;;;;;;;16.52;10.02;;;7.70;51.40;;;;;;5014341;28;20053;-79
2022/02/14 12:05:40;;;;;;;21.42;9.93;;;7.70;51.90;;;;;;5014248;28;20107;-74
2022/02/14 12:08:06;;;;;;;19.17;10.23;;;7.70;51.60;;;;;;5013885;28;20037;-74
2022/02/14 12:10:53;;;;;;;15.05;9.65;;;7.70;51.20;;;;;;5013985;28;20034;-75
2022/02/14 12:13:21;;;;;;;18.85;9.05;;;7.70;51.10;;;;;;5014288;28;20034;-78
2022/02/14 12:21:11;;;;;;;22.63;8.07;;;7.90;50.70;;;;;;5015198;28;20045;-78
2022/02/14 12:23:42;;;;;;;15.85;7.63;;;7.90;49.80;;;;;;5013797;28;20022;-73
2022/02/14 12:26:10;;;;;;;13.63;8.35;;;8.00;49.10;;;;;;5013741;28;20022;-74
2022/02/14 12:28:38;;;;;;;10.57;7.35;;;8.00;49.00;;;;;;5014939;28;20022;-74
2022/02/14 12:31:04;;;;;;;14.40;8.15;;;8.00;48.00;;;;;;5014722;28;20041;-79
2022/02/14 12:33:31;;;;;;;16.63;7.40;;;8.00;48.80;;;;;;5013516;28;20029;-79
2022/02/14 12:36:00;;;;;;;14.88;7.85;;;8.00;49.00;;;;;;5014657;28;20098;-74
2022/02/14 12:38:28;;;;;;;12.23;6.78;;;8.10;49.20;;;;;;5014818;28;20112;-74
2022/02/14 12:41:02;;;;;;;11.18;6.07;;;8.20;48.10;;;;;;5014758;28;20037;-74
2022/02/14 12:43:40;;;;;;;8.68;5.50;;;8.20;48.10;;;;;;5013283;28;20115;-77
2022/02/14 12:46:06;;;;;;;9.80;5.85;;;8.20;47.70;;;;;;5013341;28;20026;-78
2022/02/14 12:48:36;;;;;;;6.15;5.05;;;8.20;47.90;;;;;;5014602;28;20136;-74
2022/02/14 12:51:04;;;;;;;7.80;5.25;;;8.20;47.10;;;;;;5013197;28;20065;-79
2022/02/14 12:53:32;;;;;;;7.32;4.85;;;8.20;46.40;;;;;;5014489;28;20026;-77
2022/02/14 12:56:19;;;;;;;8.63;5.45;;;8.20;46.50;;;;;;5014496;28;20064;-74
2022/02/14 12:59:11;;;;;;;9.55;5.32;;;8.20;47.20;;;;;;5014567;28;20030;-74
2022/02/14 13:01:41;;;;;;;9.57;5.43;;;8.20;47.00;;;;;;5014514;28;20018;-78
2022/02/14 13:04:14;;;;;;;6.53;4.47;;;8.20;46.20;;;;;;5014270;28;20423;-74
2022/02/14 13:06:43;;;;;;;8.50;5.97;;;8.20;46.20;;;;;;5014226;28;20026;-74
2022/02/14 13:09:24;;;;;;;7.68;4.70;;;8.20;46.80;;;;;;5014224;28;20487;-74
2022/02/14 13:11:53;;;;;;;11.85;5.72;;;8.20;47.90;;;;;;5012974;28;20037;-74
2022/02/14 13:14:42;;;;;;;8.48;5.70;;;8.20;47.90;;;;;;5012899;28;20022;-74
2022/02/14 13:17:16;;;;;;;7.13;5.38;;;8.20;48.00;;;;;;5012946;28;20049;-79
2022/02/14 13:19:52;;;;;;;10.32;6.82;;;8.30;47.40;;;;;;5012775;28;20037;-74
2022/02/14 13:22:38;;;;;;;13.10;6.78;;;8.20;47.20;;;;;;5014020;28;20018;-79
2022/02/14 13:25:19;;;;;;;12.18;5.88;;;8.20;47.50;;;;;;5012377;28;20474;-74
2022/02/14 13:27:46;;;;;;;10.70;4.80;;;8.20;47.20;;;;;;5012761;28;20390;-74
2022/02/14 13:30:15;;;;;;;10.70;5.18;;;8.20;46.80;;;;;;5013718;28;20034;-74
2022/02/14 13:32:45;;;;;;;7.25;5.18;;;8.20;46.70;;;;;;5012560;28;20032;-74
2022/02/14 13:35:17;;;;;;;16.63;5.72;;;8.10;46.90;;;;;;5012818;28;20029;-79
2022/02/14 13:37:51;;;;;;;7.60;5.30;;;8.10;47.00;;;;;;5012576;28;20037;-79
2022/02/14 13:40:21;;;;;;;7.82;5.18;;;8.10;47.40;;;;;;5013915;28;20018;-79
2022/02/14 13:42:47;;;;;;;6.32;4.85;;;8.10;47.30;;;;;;5012433;28;20138;-78
2022/02/14 13:45:14;;;;;;;19.52;7.65;;;8.10;47.50;;;;;;5012385;28;20037;-74
2022/02/14 13:47:39;;;;;;;7.90;5.30;;;8.10;47.70;;;;;;5013680;28;20041;-73
2022/02/14 13:50:23;;;;;;;7.35;5.43;;;8.10;47.60;;;;;;5012272;28;20057;-78
2022/02/14 13:52:50;;;;;;;9.10;6.22;;;8.10;47.10;;;;;;5013732;28;20026;-73
2022/02/14 13:55:17;;;;;;;10.07;5.45;;;8.10;47.60;;;;;;5013609;28;20028;-79
2022/02/14 13:57:43;;;;;;;14.90;6.28;;;8.10;47.80;;;;;;5013579;28;20022;-74
2022/02/14 14:00:36;;;;;;;8.20;5.38;;;8.00;47.20;;;;;;5012381;28;20483;-79
2022/02/14 14:03:08;;;;;;;7.50;4.57;;;8.10;47.20;;;;;;5013682;28;20022;-73
2022/02/14 14:05:38;;;;;;;11.10;5.45;;;8.10;47.00;;;;;;5013599;28;20033;-74
2022/02/14 14:08:06;;;;;;;10.85;5.63;;;8.00;47.80;;;;;;5012293;28;20018;-78
2022/02/14 14:10:42;;;;;;;7.78;5.78;;;8.10;47.20;;;;;;5013537;28;20072;-78
2022/02/14 14:13:10;;;;;;;9.85;5.68;;;8.00;47.20;;;;;;5013494;28;20026;-74
2022/02/14 14:15:37;;;;;;;9.45;5.43;;;7.90;47.50;;;;;;5012155;28;20019;-79
2022/02/14 14:18:08;;;;;;;11.45;5.35;;;7.90;47.40;;;;;;5013429;28;20080;-74
2022/02/14 14:20:34;;;;;;;7.15;5.65;;;7.90;47.90;;;;;;5013697;28;20022;-74
2022/02/14 14:23:01;;;;;;;9.60;5.40;;;7.90;48.00;;;;;;5012084;28;20532;-79
2022/02/14 14:25:28;;;;;;;9.52;5.72;;;7.80;47.90;;;;;;5013283;28;20022;-74
2022/02/14 14:27:54;;;;;;;10.43;6.07;;;7.80;48.10;;;;;;5012079;28;20026;-79
2022/02/14 14:30:20;;;;;;;8.63;5.97;;;7.70;48.70;;;;;;5013253;28;20398;-74
2022/02/14 14:32:47;;;;;;;10.85;6.68;;;7.70;49.30;;;;;;5013297;28;20036;-73
2022/02/14 14:35:15;;;;;;;11.40;7.60;;;7.70;49.70;;;;;;5013391;28;20030;-78
2022/02/14 14:37:41;;;;;;;10.52;6.70;;;7.70;49.70;;;;;;5016350;28;20053;-77
2022/02/14 14:40:08;;;;;;;12.10;6.53;;;7.60;49.40;;;;;;5015608;28;20387;-74
2022/02/14 14:42:33;;;;;;;35.72;9.02;;;7.60;49.40;;;;;;5035404;28;20025;-79
2022/02/14 14:45:00;;;;;;;14.95;7.32;;;7.50;50.00;;;;;;5035314;28;20529;-74
2022/02/14 14:47:25;;;;;;;14.30;6.95;;;7.50;49.70;;;;;;5036452;28;20084;-73
2022/02/14 14:49:52;;;;;;;10.05;6.10;;;7.50;50.00;;;;;;5036345;28;20085;-73
2022/02/14 14:52:18;;;;;;;11.32;6.53;;;7.40;49.40;;;;;;5036584;28;20056;-74
2022/02/14 14:54:45;;;;;;;11.57;7.05;;;7.40;50.20;;;;;;5036616;28;20024;-74
2022/02/14 14:57:16;;;;;;;12.00;6.90;;;7.30;50.30;;;;;;5036406;28;20025;-74
2022/02/14 14:59:41;;;;;;;11.88;6.40;;;7.20;50.00;;;;;;5036613;28;20033;-78
2022/02/14 15:02:08;;;;;;;6.97;5.20;;;7.20;49.80;;;;;;5036302;28;20462;-79
2022/02/14 15:04:34;;;;;;;9.85;6.13;;;7.10;49.80;;;;;;5035147;28;20021;-74
2022/02/14 15:07:00;;;;;;;11.40;6.53;;;7.10;50.50;;;;;;5036160;28;20044;-78
2022/02/14 15:09:27;;;;;;;7.75;5.25;;;7.00;50.30;;;;;;5036048;28;20033;-78
2022/02/14 15:11:54;;;;;;;16.85;5.97;;;6.90;51.00;;;;;;5036141;28;20022;-73
2022/02/14 15:14:22;;;;;;;9.60;5.88;;;6.80;49.50;;;;;;5036233;28;20029;-74
2022/02/14 15:16:48;;;;;;;10.57;6.85;;;6.80;49.80;;;;;;5036156;28;20108;-73
2022/02/14 15:19:14;;;;;;;8.35;5.78;;;6.70;50.20;;;;;;5035973;28;20053;-73
2022/02/14 15:21:41;;;;;;;6.90;5.57;;;6.60;50.80;;;;;;5035955;28;20021;-73
2022/02/14 15:24:07;;;;;;;9.02;6.10;;;6.60;50.80;;;;;;5035940;28;20482;-79
2022/02/14 15:26:32;;;;;;;9.23;5.30;;;6.50;50.30;;;;;;5035971;28;20027;-74
2022/02/14 15:28:58;;;;;;;9.38;5.30;;;6.40;50.80;;;;;;5035705;28;20025;-74
2022/02/14 15:31:24;;;;;;;10.50;5.47;;;6.40;51.00;;;;;;5035907;28;20075;-74
2022/02/14 15:33:49;;;;;;;15.50;8.52;;;6.30;51.10;;;;;;5035732;28;20067;-74
2022/02/14 15:36:15;;;;;;;30.15;10.25;;;6.20;51.50;;;;;;5035721;28;20386;-74
2022/02/14 15:38:41;;;;;;;22.75;10.43;;;6.10;51.60;;;;;;5035731;28;20032;-78
2022/02/14 15:41:10;;;;;;;17.98;10.15;;;6.00;52.40;;;;;;5034276;28;20147;-74
2022/02/14 15:43:36;;;;;;;25.90;13.38;;;5.90;52.40;;;;;;5034429;28;20025;-73
2022/02/14 15:46:02;;;;;;;34.28;16.60;;;5.90;52.60;;;;;;5034222;28;20026;-78
2022/02/14 15:48:29;;;;;;;36.60;18.38;;;5.70;52.90;;;;;;5034107;28;20099;-74
2022/02/14 15:50:54;;;;;;;48.63;22.60;;;5.70;52.60;;;;;;5034994;28;20091;-79
2022/02/14 15:53:20;;;;;;;40.20;15.70;;;5.60;52.80;;;;;;5022511;28;20030;-79
2022/02/14 15:55:46;;;;;;;40.92;19.98;;;5.50;53.80;;;;;;5015382;28;20513;-79
2022/02/14 15:58:11;;;;;;;42.63;19.30;;;5.50;52.90;;;;;;5015409;28;20057;-79
2022/02/14 16:00:37;;;;;;;68.72;28.45;;;5.40;53.90;;;;;;5015436;28;20026;-74
2022/02/14 16:03:05;;;;;;;72.75;31.13;;;5.40;54.50;;;;;;5015275;28;20383;-74
2022/02/14 16:05:30;;;;;;;241.88;118.72;;;5.30;55.90;;;;;;5013777;28;20026;-79
2022/02/14 16:07:56;;;;;;;128.20;59.47;;;5.20;56.00;;;;;;5014057;28;20041;-72
2022/02/14 16:10:22;;;;;;;65.85;33.45;;;5.10;56.30;;;;;;5013907;28;20064;-74
2022/02/14 16:12:47;;;;;;;45.90;26.38;;;5.00;57.30;;;;;;5013845;28;20112;-77
2022/02/14 16:15:16;;;;;;;72.75;37.30;;;5.00;59.00;;;;;;5015087;28;20040;-74
2022/02/14 16:17:46;;;;;;;53.53;18.48;;;4.90;57.60;;;;;;5014794;28;20479;-79
2022/02/14 16:20:15;;;;;;;46.20;20.02;;;4.90;56.90;;;;;;5015187;28;20030;-78
2022/02/14 16:22:46;;;;;;;48.08;23.92;;;4.80;56.30;;;;;;5015036;28;20025;-79
2022/02/14 16:25:15;;;;;;;59.35;28.35;;;4.80;56.70;;;;;;5014552;28;20026;-79
2022/02/14 16:27:46;;;;;;;29.80;15.00;;;4.80;56.90;;;;;;5013511;28;20026;-79
2022/02/14 16:30:12;;;;;;;25.10;12.20;;;4.80;57.20;;;;;;5014431;28;20531;-74
2022/02/14 16:32:40;;;;;;;27.08;12.93;;;4.70;57.30;;;;;;5014718;28;20060;-79
2022/02/14 16:35:07;;;;;;;22.38;12.30;;;4.70;57.50;;;;;;5010619;28;20025;-80
2022/02/14 16:37:33;;;;;;;41.22;23.08;;;4.70;57.20;;;;;;5012203;28;20026;-79
2022/02/14 16:39:59;;;;;;;163.50;78.40;;;4.70;57.00;;;;;;5013691;28;20487;-79
2022/02/14 16:42:26;;;;;;;230.80;115.55;;;4.70;57.10;;;;;;5013668;28;20030;-80
2022/02/14 16:44:52;;;;;;;50.72;29.45;;;4.70;57.70;;;;;;5012168;28;20056;-79
2022/02/14 16:47:19;;;;;;;33.15;22.67;;;4.70;58.00;;;;;;5012735;28;20021;-79
2022/02/14 16:49:53;;;;;;;46.47;26.30;;;4.70;57.70;;;;;;5013970;28;20092;-79
2022/02/14 16:52:23;;;;;;;31.30;18.58;;;4.60;57.40;;;;;;5012637;28;20037;-79
2022/02/14 16:54:50;;;;;;;35.45;19.60;;;4.60;57.80;;;;;;5014246;28;20022;-80
2022/02/14 16:57:16;;;;;;;44.95;22.20;;;4.50;57.50;;;;;;5012787;28;20087;-79
2022/02/14 16:59:42;;;;;;;62.45;29.08;;;4.40;57.90;;;;;;5012647;28;20022;-80
2022/02/14 17:02:08;;;;;;;74.18;32.20;;;4.30;57.80;;;;;;5013759;28;20357;-80
2022/02/14 17:04:33;;;;;;;81.63;35.08;;;4.20;58.30;;;;;;5010935;28;20391;-80
2022/02/14 17:06:59;;;;;;;60.90;27.88;;;4.10;58.00;;;;;;5012071;28;20018;-79
2022/02/14 17:09:26;;;;;;;49.05;24.58;;;4.10;58.30;;;;;;5013615;28;20550;-80
2022/02/14 17:11:52;;;;;;;72.35;38.33;;;3.90;58.20;;;;;;5013657;28;20029;-79
2022/02/14 17:14:18;;;;;;;67.63;35.75;;;3.90;58.60;;;;;;5013736;28;20100;-79
2022/02/14 17:16:43;;;;;;;72.88;34.97;;;3.70;59.40;;;;;;5013761;28;20084;-79
2022/02/14 17:19:09;;;;;;;67.28;31.27;;;3.60;59.70;;;;;;5013655;28;20501;-74
2022/02/14 17:21:35;;;;;;;71.63;32.92;;;3.50;60.20;;;;;;5013518;28;20422;-73
2022/02/14 17:24:03;;;;;;;77.60;33.15;;;3.30;60.80;;;;;;5013642;28;20022;-79
2022/02/14 17:26:31;;;;;;;77.15;37.08;;;3.20;61.80;;;;;;5013604;28;20483;-73
2022/02/14 17:28:57;;;;;;;62.40;30.02;;;3.00;62.90;;;;;;5013433;28;20030;-74
2022/02/14 17:31:23;;;;;;;63.53;30.70;;;3.00;63.50;;;;;;5012305;28;20070;-73
2022/02/14 17:33:49;;;;;;;55.20;24.77;;;2.90;63.10;;;;;;4980172;28;20044;-73
2022/02/14 17:36:14;;;;;;;54.92;23.63;;;2.90;62.60;;;;;;5013315;28;20535;-73
2022/02/14 17:38:40;;;;;;;46.78;21.77;;;2.90;62.40;;;;;;5013212;28;20018;-73
2022/02/14 17:41:06;;;;;;;40.50;20.30;;;2.80;62.40;;;;;;5000289;28;20034;-74
2022/02/14 17:43:31;;;;;;;57.72;29.27;;;2.70;62.60;;;;;;4991397;28;20026;-73
2022/02/14 17:45:57;;;;;;;168.65;82.68;;;2.60;62.90;;;;;;4992861;28;20041;-73
2022/02/14 17:48:22;;;;;;;183.98;88.13;;;2.60;63.20;;;;;;4991613;28;20038;-73
2022/02/14 17:50:48;;;;;;;132.48;62.00;;;2.50;63.50;;;;;;4992021;28;20050;-73
2022/02/14 17:53:14;;;;;;;119.65;60.58;;;2.40;64.10;;;;;;4992497;28;20061;-74
2022/02/14 17:55:39;;;;;;;119.57;60.03;;;2.30;64.70;;;;;;4992820;28;20082;-73
2022/02/14 17:58:05;;;;;;;108.70;54.15;;;2.30;64.30;;;;;;4991290;28;20515;-74
2022/02/14 18:00:31;;;;;;;139.73;63.83;;;2.30;64.20;;;;;;5007810;28;20105;-74
2022/02/14 18:02:57;;;;;;;128.52;65.95;;;2.20;64.40;;;;;;4991402;28;20042;-73
2022/02/14 18:05:22;;;;;;;135.13;64.25;;;2.10;65.00;;;;;;4990739;28;20019;-73
2022/02/14 18:07:48;;;;;;;126.25;62.78;;;2.00;65.30;;;;;;4992442;28;20065;-73
2022/02/14 18:10:16;;;;;;;103.93;48.85;;;1.90;65.50;;;;;;5008484;28;20093;-74
2022/02/14 18:12:41;;;;;;;97.13;44.55;;;1.80;65.90;;;;;;5015573;28;20030;-73
2022/02/14 18:15:08;;;;;;;75.07;35.75;;;1.80;66.10;;;;;;5031622;28;20044;-74
2022/02/14 18:17:35;;;;;;;81.28;40.28;;;1.80;66.70;;;;;;5015908;28;20701;-74
2022/02/14 18:20:00;;;;;;;148.10;73.47;;;1.70;66.90;;;;;;5014391;28;20022;-74
2022/02/14 18:22:26;;;;;;;188.65;84.50;;;1.60;68.20;;;;;;5015852;28;20056;-79
2022/02/14 18:24:55;;;;;;;138.73;66.03;;;1.50;69.00;;;;;;5016185;28;20106;-80
2022/02/14 18:27:20;;;;;;;125.43;59.20;;;1.40;69.40;;;;;;5030978;28;20022;-80
2022/02/14 18:29:46;;;;;;;111.75;51.95;;;1.30;69.80;;;;;;5015959;28;20034;-82
2022/02/14 18:32:11;;;;;;;108.32;51.38;;;1.30;70.00;;;;;;5031091;28;20029;-81
2022/02/14 18:34:38;;;;;;;125.85;59.15;;;1.20;70.00;;;;;;5013008;28;20037;-81
2022/02/14 18:37:04;;;;;;;127.70;59.78;;;1.20;70.30;;;;;;5013852;28;20049;-81
2022/02/14 18:39:30;;;;;;;122.63;56.72;;;1.10;70.60;;;;;;5014741;28;20046;-81
2022/02/14 18:41:56;;;;;;;122.20;56.92;;;1.00;70.70;;;;;;5015196;28;20109;-81
2022/02/14 18:44:21;;;;;;;124.82;55.70;;;1.00;71.30;;;;;;5014858;28;20112;-81
2022/02/14 18:46:49;;;;;;;122.43;56.10;;;0.90;71.60;;;;;;5015218;28;20033;-80
2022/02/14 18:49:16;;;;;;;182.48;82.63;;;0.80;73.00;;;;;;5013800;28;20066;-74
2022/02/14 18:51:42;;;;;;;201.70;83.63;;;0.70;74.40;;;;;;5013863;28;20053;-74
2022/02/14 18:54:08;;;;;;;252.07;103.53;;;0.60;74.80;;;;;;5013326;28;20038;-74
2022/02/14 18:56:33;;;;;;;210.15;88.53;;;0.50;75.10;;;;;;5011894;28;20756;-74
2022/02/14 18:58:59;;;;;;;218.27;89.70;;;0.50;75.60;;;;;;5014448;28;20069;-74
2022/02/14 19:01:24;;;;;;;190.77;80.45;;;0.40;76.00;;;;;;5014400;28;20085;-75
2022/02/14 19:03:50;;;;;;;195.13;84.10;;;0.40;76.60;;;;;;5014001;28;20026;-74
2022/02/14 19:06:16;;;;;;;175.00;70.78;;;0.30;77.40;;;;;;5015371;28;20047;-75
2022/02/14 19:08:41;;;;;;;117.22;53.00;;;0.20;77.70;;;;;;5015380;28;20037;-74
2022/02/14 19:11:07;;;;;;;138.32;74.85;;;0.00;81.30;;;;;;5014396;28;20487;-81
2022/02/14 19:13:33;;;;;;;112.20;50.15;;;-0.10;83.30;;;;;;5014943;28;20036;-73
2022/02/14 19:16:00;;;;;;;122.60;53.22;;;-0.10;84.10;;;;;;5015588;28;20108;-74
2022/02/14 19:18:26;;;;;;;229.20;81.45;;;-0.20;84.40;;;;;;5015323;28;20041;-73
2022/02/14 19:20:51;;;;;;;226.00;81.32;;;-0.20;84.10;;;;;;5014087;28;20022;-80
2022/02/14 19:23:18;;;;;;;230.02;86.22;;;-0.20;83.60;;;;;;5012883;28;20037;-74
2022/02/14 19:25:43;;;;;;;167.25;68.60;;;-0.30;84.20;;;;;;5015106;28;20105;-73
2022/02/14 19:28:12;;;;;;;156.43;67.15;;;-0.30;85.40;;;;;;5014931;28;20124;-74
2022/02/14 19:30:38;;;;;;;159.73;69.78;;;-0.40;86.40;;;;;;5015048;28;20103;-74
2022/02/14 19:35:49;;;;;;;212.00;86.47;;;-0.60;89.60;;;;;;5014962;28;20136;-74
2022/02/14 19:38:14;;;;;;;216.30;90.35;;;-0.70;91.70;;;;;;5014638;28;20143;-74
2022/02/14 19:40:40;;;;;;;213.88;92.13;;;-0.80;92.90;;;;;;5013585;28;20021;-75
2022/02/14 19:43:06;;;;;;;205.80;87.85;;;-0.80;93.90;;;;;;5013273;28;20475;-74
2022/02/14 19:45:32;;;;;;;197.77;89.82;;;-0.80;94.50;;;;;;5014475;28;20475;-74
2022/02/14 19:47:58;;;;;;;226.10;91.57;;;-0.80;94.40;;;;;;5014452;28;20026;-74
2022/02/14 19:50:24;;;;;;;236.43;103.43;;;-0.80;95.00;;;;;;5013384;28;20054;-74
2022/02/14 19:52:50;;;;;;;246.55;106.30;;;-0.90;95.50;;;;;;5014938;28;20463;-74
2022/02/14 19:55:17;;;;;;;298.58;117.53;;;-0.90;97.10;;;;;;5012968;28;20112;-74
2022/02/14 19:57:43;;;;;;;284.63;114.57;;;-1.00;97.80;;;;;;5013749;28;20391;-73
2022/02/14 20:00:15;;;;;;;214.45;91.43;;;-1.00;98.30;;;;;;5014451;28;20018;-74
2022/02/14 20:02:41;;;;;;;437.40;175.23;;;-1.10;98.20;;;;;;5014931;28;20026;-81
2022/02/14 20:05:08;;;;;;;226.75;95.32;;;-1.20;99.00;;;;;;5014718;28;20495;-81
2022/02/14 20:07:35;;;;;;;136.32;59.42;;;-1.20;98.90;;;;;;5014686;28;20438;-80
2022/02/14 20:10:01;;;;;;;135.05;58.08;;;-1.20;98.80;;;;;;5011380;28;20042;-80
2022/02/14 20:12:27;;;;;;;142.13;58.58;;;-1.20;98.50;;;;;;5014631;28;20100;-81
2022/02/14 20:14:54;;;;;;;135.88;62.17;;;-1.20;98.70;;;;;;5015190;28;20483;-81
2022/02/14 20:17:20;;;;;;;150.93;65.45;;;-1.20;98.70;;;;;;5013309;28;20029;-80
2022/02/14 20:19:45;;;;;;;277.75;101.25;;;-1.20;99.00;;;;;;5014584;28;20032;-80
2022/02/14 20:22:15;;;;;;;130.15;55.83;;;-1.30;99.90;;;;;;5014509;28;20025;-80
2022/02/14 20:24:42;;;;;;;117.93;51.25;;;-1.30;99.90;;;;;;5014260;28;20022;-80
2022/02/14 20:27:07;;;;;;;111.05;45.42;;;-1.40;99.90;;;;;;5014380;28;20116;-80
2022/02/14 20:29:33;;;;;;;104.10;47.85;;;-1.40;99.90;;;;;;5014206;28;20093;-80
2022/02/14 20:31:58;;;;;;;132.15;53.90;;;-1.40;99.90;;;;;;5014300;28;20029;-80
2022/02/14 20:34:24;;;;;;;125.35;54.08;;;-1.40;99.90;;;;;;5012328;28;20022;-80
2022/02/14 20:36:52;;;;;;;114.07;51.00;;;-1.40;99.90;;;;;;5014009;28;20030;-81
2022/02/14 20:39:18;;;;;;;103.72;47.00;;;-1.40;99.90;;;;;;5012554;28;20026;-80
2022/02/14 20:41:44;;;;;;;118.60;51.10;;;-1.40;99.90;;;;;;5024726;28;20105;-80
2022/02/14 20:44:10;;;;;;;104.53;46.00;;;-1.40;99.90;;;;;;5033835;28;20104;-80
2022/02/14 20:46:37;;;;;;;131.18;54.50;;;-1.40;99.90;;;;;;5033849;28;20018;-80
2022/02/14 20:49:03;;;;;;;118.95;51.08;;;-1.40;99.90;;;;;;5033716;28;20087;-80
2022/02/14 20:51:28;;;;;;;106.55;49.10;;;-1.40;99.90;;;;;;5033703;28;20116;-80
2022/02/14 20:53:55;;;;;;;88.10;40.50;;;-1.50;99.90;;;;;;5032050;28;20045;-80
2022/02/14 20:56:21;;;;;;;77.45;37.67;;;-1.50;99.90;;;;;;5033749;28;20013;-80
2022/02/14 20:58:47;;;;;;;73.53;33.70;;;-1.50;99.90;;;;;;5032385;28;20087;-80
2022/02/14 21:01:13;;;;;;;64.75;29.95;;;-1.60;99.90;;;;;;5033590;28;20494;-80
2022/02/14 21:03:40;;;;;;;71.05;31.00;;;-1.60;99.90;;;;;;5032384;28;20390;-80
2022/02/14 21:06:07;;;;;;;65.53;29.58;;;-1.60;99.90;;;;;;5032212;28;20026;-80
2022/02/14 21:08:32;;;;;;;58.45;28.40;;;-1.60;99.90;;;;;;5033103;28;20025;-80
2022/02/14 21:10:58;;;;;;;66.95;28.48;;;-1.60;99.90;;;;;;5033378;28;20044;-80
2022/02/14 21:13:28;;;;;;;67.30;30.90;;;-1.70;99.90;;;;;;5032302;28;20068;-80
2022/02/14 21:15:54;;;;;;;53.20;26.90;;;-1.60;99.90;;;;;;5033249;28;20071;-80
2022/02/14 21:18:19;;;;;;;64.13;29.20;;;-1.70;99.90;;;;;;5033181;28;20025;-80
2022/02/14 21:20:45;;;;;;;61.53;28.23;;;-1.70;99.90;;;;;;5032014;28;20022;-80
2022/02/14 21:23:11;;;;;;;61.28;27.50;;;-1.80;99.90;;;;;;5032905;28;20018;-79
2022/02/14 21:25:37;;;;;;;70.35;29.17;;;-1.80;99.90;;;;;;5031901;28;20021;-79
2022/02/14 21:28:02;;;;;;;71.70;31.80;;;-1.80;99.90;;;;;;5033085;28;20028;-80
2022/02/14 21:30:28;;;;;;;75.13;31.92;;;-1.80;99.90;;;;;;5031848;28;20036;-79
2022/02/14 21:32:53;;;;;;;68.07;29.02;;;-1.90;99.90;;;;;;5033060;28;20474;-79
2022/02/14 21:35:19;;;;;;;70.45;31.60;;;-1.90;99.90;;;;;;5031758;28;20017;-80
2022/02/14 21:37:45;;;;;;;145.50;58.42;;;-1.90;99.90;;;;;;5032605;28;20451;-80
2022/02/14 21:40:11;;;;;;;111.53;44.05;;;-1.90;99.90;;;;;;5032904;28;20026;-80
2022/02/14 21:42:38;;;;;;;125.03;49.65;;;-1.90;99.90;;;;;;5031684;28;20360;-79
2022/02/14 21:45:04;;;;;;;90.25;39.42;;;-1.90;99.90;;;;;;5032349;28;20060;-80
2022/02/14 21:47:31;;;;;;;80.80;36.00;;;-1.90;99.90;;;;;;5032169;28;20018;-80
2022/02/14 21:49:56;;;;;;;84.65;38.85;;;-1.90;99.90;;;;;;5032467;28;20061;-73
2022/02/14 21:52:22;;;;;;;104.28;39.40;;;-1.90;99.90;;;;;;5033284;28;20025;-79
2022/02/14 21:54:48;;;;;;;180.65;62.85;;;-1.90;99.90;;;;;;5033087;28;20032;-73
2022/02/14 21:57:13;;;;;;;127.60;50.42;;;-1.90;99.90;;;;;;5032020;28;20033;-73
2022/02/14 21:59:40;;;;;;;110.63;44.65;;;-1.90;99.90;;;;;;5033229;28;20025;-74
2022/02/14 22:02:06;;;;;;;139.00;54.67;;;-1.90;99.90;;;;;;5033260;28;20036;-73
2022/02/14 22:07:22;;;;;;;107.63;44.35;;;-2.00;99.90;;;;;;5033201;28;20040;-73
2022/02/14 22:09:51;;;;;;;117.40;47.88;;;-2.00;99.90;;;;;;5033090;28;20037;-80
2022/02/14 22:12:17;;;;;;;101.25;38.10;;;-2.00;99.90;;;;;;5027627;28;20387;-80
2022/02/14 22:14:42;;;;;;;74.28;35.13;;;-2.10;99.90;;;;;;5012742;28;20030;-80
2022/02/14 22:17:08;;;;;;;53.88;27.30;;;-2.00;99.90;;;;;;5011915;28;20443;-80
2022/02/14 22:19:33;;;;;;;50.60;25.20;;;-2.00;99.90;;;;;;5011923;28;20364;-74
2022/02/14 22:21:59;;;;;;;56.50;26.27;;;-2.00;99.90;;;;;;5013140;28;20101;-73
2022/02/14 22:24:24;;;;;;;53.17;28.15;;;-2.00;99.90;;;;;;5013319;28;20100;-80
2022/02/14 22:26:50;;;;;;;133.13;57.05;;;-1.90;99.90;;;;;;5012019;28;20053;-80
2022/02/14 22:29:15;;;;;;;100.35;42.40;;;-1.90;99.90;;;;;;5011898;28;20398;-74
2022/02/14 22:31:41;;;;;;;80.78;35.97;;;-1.90;99.90;;;;;;5013167;28;20030;-80
2022/02/14 22:34:06;;;;;;;68.55;33.65;;;-1.80;99.90;;;;;;5013105;28;20022;-79
2022/02/14 22:36:35;;;;;;;63.58;29.40;;;-1.80;99.90;;;;;;5011815;28;20018;-80
2022/02/14 22:39:02;;;;;;;61.97;29.10;;;-1.80;99.90;;;;;;5013220;28;20049;-73